createdAt,value
2023-05-10T00:01:05.992Z,46.82
2023-05-10T00:04:07.907Z,47.32
2023-05-10T00:07:09.624Z,46.97
2023-05-10T00:10:12.461Z,47.01
2023-05-10T00:13:14.439Z,47.01
2023-05-10T00:16:16.686Z,47.18
2023-05-10T00:19:18.367Z,47.17
2023-05-10T00:22:20.378Z,47.36
2023-05-10T00:25:25.048Z,47.42
2023-05-10T00:28:29.384Z,47.94
2023-05-10T00:31:31.956Z,47.88
2023-05-10T00:34:34.279Z,47.97
2023-05-10T00:37:36.204Z,48.17
2023-05-10T00:40:38.500Z,48.35
2023-05-10T00:43:45.753Z,48.26
2023-05-10T00:46:48.187Z,48.43
2023-05-10T00:49:50.554Z,48.51
2023-05-10T00:52:53.334Z,48.51
2023-05-10T00:55:55.240Z,48.40
2023-05-10T00:58:57.472Z,48.55
2023-05-10T01:01:59.443Z,48.39
2023-05-10T01:05:01.701Z,48.76
2023-05-10T01:08:03.750Z,48.48
2023-05-10T01:11:05.673Z,49.27
2023-05-10T01:14:07.881Z,49.09
2023-05-10T01:17:12.089Z,49.22
2023-05-10T01:20:15.525Z,49.15
2023-05-10T01:23:32.031Z,49.10
2023-05-10T01:26:42.714Z,49.43
2023-05-10T01:30:16.278Z,49.77
2023-05-10T01:33:21.175Z,49.62
2023-05-10T01:36:46.666Z,49.62
2023-05-10T01:39:56.199Z,49.63
2023-05-10T01:43:09.088Z,49.90
2023-05-10T01:46:17.625Z,49.91
2023-05-10T01:49:32.466Z,50.01
2023-05-10T01:52:42.416Z,50.20
2023-05-10T01:55:48.571Z,49.94
2023-05-10T01:58:52.852Z,50.17
2023-05-10T02:01:58.748Z,50.11
2023-05-10T02:05:00.810Z,50.12
2023-05-10T02:08:06.926Z,50.11
2023-05-10T02:11:09.881Z,50.09
2023-05-10T02:14:13.253Z,50.27
2023-05-10T02:17:15.636Z,50.24
2023-05-10T02:20:20.369Z,50.23
2023-05-10T02:23:24.791Z,50.42
2023-05-10T02:26:27.854Z,50.53
2023-05-10T02:29:30.880Z,50.49
2023-05-10T02:32:33.923Z,50.51
2023-05-10T02:35:37.448Z,50.52
2023-05-10T02:38:40.974Z,50.67
2023-05-10T02:41:43.683Z,50.81
2023-05-10T02:44:49.146Z,51.17
2023-05-10T02:47:51.100Z,51.57
2023-05-10T02:51:04.624Z,51.57
2023-05-10T02:54:16.618Z,51.70
2023-05-10T02:57:26.064Z,51.65
2023-05-10T03:00:28.057Z,51.97
2023-05-10T03:03:29.788Z,52.34
2023-05-10T03:06:32.430Z,52.21
2023-05-10T03:09:34.802Z,52.31
2023-05-10T03:12:54.986Z,52.54
2023-05-10T03:16:05.251Z,52.46
2023-05-10T03:19:28.678Z,52.74
2023-05-10T03:22:37.529Z,52.41
2023-05-10T03:25:42.275Z,52.53
2023-05-10T03:28:44.822Z,52.40
2023-05-10T03:31:47.028Z,52.92
2023-05-10T03:34:50.076Z,52.91
2023-05-10T03:37:51.927Z,52.96
2023-05-10T03:40:53.671Z,52.75
2023-05-10T03:43:55.480Z,53.01
2023-05-10T03:46:58.075Z,52.80
2023-05-10T03:50:00.430Z,52.83
2023-05-10T03:53:03.241Z,52.82
2023-05-10T03:56:05.369Z,52.73
2023-05-10T03:59:08.495Z,53.00
2023-05-10T04:02:10.767Z,52.89
2023-05-10T04:05:12.604Z,52.71
2023-05-10T04:08:15.794Z,52.98
2023-05-10T04:11:17.793Z,52.84
2023-05-10T04:14:19.530Z,52.59
2023-05-10T04:17:21.392Z,52.84
2023-05-10T04:20:23.227Z,52.87
2023-05-10T04:23:25.027Z,52.54
2023-05-10T04:26:26.881Z,52.66
2023-05-10T04:29:28.672Z,52.44
2023-05-10T04:32:30.468Z,51.96
2023-05-10T04:35:32.323Z,52.19
2023-05-10T04:38:34.182Z,52.13
2023-05-10T04:41:35.953Z,51.71
2023-05-10T04:44:38.752Z,51.90
2023-05-10T04:47:40.600Z,51.79
2023-05-10T04:50:42.348Z,51.63
2023-05-10T04:53:51.160Z,51.77
2023-05-10T04:56:59.495Z,51.36
2023-05-10T05:00:01.258Z,50.90
2023-05-10T05:03:03.196Z,50.89
2023-05-10T05:06:05.255Z,50.60
2023-05-10T05:09:07.047Z,49.94
2023-05-10T05:12:08.768Z,48.57
2023-05-10T05:15:11.776Z,46.95
2023-05-10T05:18:13.626Z,45.90
2023-05-10T05:21:19.481Z,44.89
2023-05-10T05:24:22.256Z,43.83
2023-05-10T05:27:25.390Z,42.56
2023-05-10T05:30:27.130Z,42.04
2023-05-10T05:33:28.849Z,41.50
2023-05-10T05:36:31.836Z,41.00
2023-05-10T05:39:33.593Z,40.74
2023-05-10T05:42:35.354Z,40.30
2023-05-10T05:45:37.696Z,39.97
2023-05-10T05:48:39.642Z,39.79
2023-05-10T05:51:41.445Z,39.21
2023-05-10T05:54:43.214Z,38.72
2023-05-10T05:57:48.160Z,38.43
2023-05-10T06:00:50.530Z,38.00
2023-05-10T06:03:53.469Z,38.17
2023-05-10T06:06:55.503Z,37.26
2023-05-10T06:09:57.262Z,36.75
2023-05-10T06:12:59.040Z,36.13
2023-05-10T06:16:00.955Z,34.58
2023-05-10T06:19:03.462Z,33.10
2023-05-10T06:22:05.287Z,32.16
2023-05-10T06:25:07.633Z,31.79
2023-05-10T06:28:09.345Z,31.33
2023-05-10T06:31:12.935Z,31.45
2023-05-10T06:34:14.687Z,30.79
2023-05-10T06:37:16.377Z,29.95
2023-05-10T06:40:18.771Z,30.21
2023-05-10T06:43:20.927Z,29.88
2023-05-10T06:46:23.000Z,29.45
2023-05-10T06:49:24.882Z,29.40
2023-05-10T06:52:26.649Z,28.96
2023-05-10T06:55:29.106Z,28.69
2023-05-10T06:58:30.759Z,28.41
2023-05-10T07:01:32.459Z,28.27
2023-05-10T07:04:34.305Z,28.16
2023-05-10T07:07:36.128Z,28.25
2023-05-10T07:10:37.953Z,28.14
2023-05-10T07:13:42.341Z,28.00
2023-05-10T07:16:44.443Z,27.53
2023-05-10T07:19:46.298Z,26.88
2023-05-10T07:22:48.014Z,27.26
2023-05-10T07:25:52.579Z,26.66
2023-05-10T07:28:54.344Z,26.72
2023-05-10T07:31:58.585Z,26.90
2023-05-10T07:35:00.681Z,26.79
2023-05-10T07:38:02.846Z,26.72
2023-05-10T07:41:04.697Z,26.79
2023-05-10T07:44:07.410Z,26.54
2023-05-10T07:47:09.188Z,26.46
2023-05-10T07:50:11.210Z,26.75
2023-05-10T07:53:13.184Z,26.58
2023-05-10T07:56:30.708Z,26.48
2023-05-10T07:59:33.278Z,26.23
2023-05-10T08:02:37.477Z,26.05
2023-05-10T08:05:39.273Z,25.91
2023-05-10T08:08:41.484Z,25.76
2023-05-10T08:11:43.223Z,25.46
2023-05-10T08:14:45.043Z,25.82
2023-05-10T08:17:46.940Z,25.90
2023-05-10T08:20:48.678Z,25.76
2023-05-10T08:23:50.740Z,25.72
2023-05-10T08:26:52.432Z,25.60
2023-05-10T08:29:54.158Z,25.49
2023-05-10T08:32:55.964Z,25.17
2023-05-10T08:35:57.792Z,25.25
2023-05-10T08:38:59.978Z,24.82
2023-05-10T08:42:04.979Z,24.67
2023-05-10T08:45:08.492Z,24.59
2023-05-10T08:48:12.062Z,24.76
2023-05-10T08:51:36.761Z,24.17
2023-05-10T08:54:39.117Z,23.76
2023-05-10T08:57:41.446Z,24.37
2023-05-10T09:00:44.116Z,23.98
2023-05-10T09:03:48.654Z,24.02
2023-05-10T09:06:50.487Z,23.91
2023-05-10T09:09:53.139Z,23.85
2023-05-10T09:12:59.296Z,23.73
2023-05-10T09:16:09.901Z,23.26
2023-05-10T09:19:22.038Z,23.30
2023-05-10T09:22:24.773Z,23.46
2023-05-10T09:25:26.556Z,23.17
2023-05-10T09:28:28.319Z,23.01
2023-05-10T09:31:48.374Z,23.36
2023-05-10T09:34:50.983Z,23.00
2023-05-10T09:37:55.105Z,23.00
2023-05-10T09:40:58.829Z,22.92
2023-05-10T09:44:00.577Z,22.42
2023-05-10T09:47:03.712Z,22.46
2023-05-10T09:50:06.107Z,22.24
2023-05-10T09:53:07.816Z,22.20
2023-05-10T09:56:09.676Z,22.02
2023-05-10T09:59:13.430Z,21.69
2023-05-10T10:02:15.434Z,21.88
2023-05-10T10:05:17.561Z,22.14
2023-05-10T10:08:20.038Z,21.95
2023-05-10T10:11:21.842Z,22.01
2023-05-10T10:14:27.486Z,21.87
2023-05-10T10:17:31.768Z,21.99
2023-05-10T10:20:33.498Z,21.94
2023-05-10T10:23:38.344Z,21.59
2023-05-10T10:26:43.718Z,21.56
2023-05-10T10:30:27.343Z,21.81
2023-05-10T10:33:37.530Z,21.46
2023-05-10T10:36:46.162Z,21.84
2023-05-10T10:39:49.801Z,21.75
2023-05-10T10:42:51.623Z,22.21
2023-05-10T10:46:15.854Z,22.30
2023-05-10T10:49:18.346Z,21.99
2023-05-10T10:52:40.040Z,21.96
2023-05-10T10:55:49.249Z,21.92
2023-05-10T10:58:54.838Z,22.00
2023-05-10T11:01:56.904Z,21.63
2023-05-10T11:04:58.705Z,22.12
2023-05-10T11:08:07.272Z,21.83
2023-05-10T11:11:10.274Z,21.76
2023-05-10T11:14:12.062Z,21.77
2023-05-10T11:17:27.669Z,21.55
2023-05-10T11:20:34.458Z,21.75
2023-05-10T11:23:59.691Z,21.69
2023-05-10T11:27:02.055Z,22.23
2023-05-10T11:30:06.849Z,22.08
2023-05-10T11:33:09.828Z,22.01
2023-05-10T11:36:38.450Z,22.30
2023-05-10T11:39:46.349Z,22.46
2023-05-10T11:42:48.056Z,22.29
2023-05-10T11:45:49.821Z,22.06
2023-05-10T11:49:01.707Z,22.09
2023-05-10T11:52:12.080Z,21.83
2023-05-10T11:55:14.157Z,21.69
2023-05-10T11:58:15.874Z,21.53
2023-05-10T12:01:17.771Z,21.89
2023-05-10T12:04:20.055Z,21.42
2023-05-10T12:07:22.115Z,21.73
2023-05-10T12:10:28.244Z,21.55
2023-05-10T12:13:30.101Z,21.54
2023-05-10T12:16:31.983Z,21.80
2023-05-10T12:19:40.621Z,21.69
2023-05-10T12:22:45.747Z,21.51
2023-05-10T12:25:47.921Z,21.68
2023-05-10T12:28:49.726Z,21.66
2023-05-10T12:31:59.834Z,21.22
2023-05-10T12:35:01.948Z,21.59
2023-05-10T12:38:29.881Z,21.52
2023-05-10T12:41:59.131Z,21.58
2023-05-10T12:45:00.930Z,21.55
2023-05-10T12:48:02.665Z,21.71
2023-05-10T12:51:05.728Z,21.78
2023-05-10T12:54:07.483Z,21.67
2023-05-10T12:57:09.338Z,21.65
2023-05-10T13:00:26.669Z,21.69
2023-05-10T13:03:28.400Z,21.57
2023-05-10T13:06:30.550Z,21.32
2023-05-10T13:09:32.259Z,21.27
2023-05-10T13:12:34.255Z,21.38
2023-05-10T13:15:36.199Z,21.35
2023-05-10T13:18:38.043Z,21.15
2023-05-10T13:21:41.878Z,21.29
2023-05-10T13:24:43.702Z,21.38
2023-05-10T13:27:45.695Z,21.39
2023-05-10T13:30:47.562Z,21.29
2023-05-10T13:33:49.364Z,21.74
2023-05-10T13:36:51.217Z,21.48
2023-05-10T13:39:53.071Z,21.53
2023-05-10T13:42:54.960Z,21.59
2023-05-10T13:45:56.781Z,21.32
2023-05-10T13:48:58.613Z,21.01
2023-05-10T13:52:00.732Z,21.29
2023-05-10T13:55:02.553Z,21.32
2023-05-10T13:58:05.607Z,21.22
2023-05-10T14:01:07.795Z,21.28
2023-05-10T14:04:11.460Z,21.20
2023-05-10T14:07:13.386Z,21.63
2023-05-10T14:10:15.330Z,21.52
2023-05-10T14:13:17.298Z,21.51
2023-05-10T14:16:19.253Z,21.68
2023-05-10T14:19:21.458Z,21.24
2023-05-10T14:22:24.741Z,21.38
2023-05-10T14:25:26.957Z,21.65
2023-05-10T14:28:28.932Z,21.52
2023-05-10T14:31:31.491Z,21.26
2023-05-10T14:34:33.843Z,21.19
2023-05-10T14:37:35.672Z,21.17
2023-05-10T14:40:37.587Z,21.40
2023-05-10T14:43:39.420Z,21.01
2023-05-10T14:46:41.185Z,20.91
2023-05-10T14:49:42.962Z,20.98
2023-05-10T14:52:45.234Z,21.09
2023-05-10T14:55:47.071Z,21.04
2023-05-10T14:58:50.204Z,21.25
2023-05-10T15:01:52.203Z,20.95
2023-05-10T15:04:54.669Z,20.98
2023-05-10T15:07:56.980Z,21.00
2023-05-10T15:10:58.825Z,20.90
2023-05-10T15:14:00.600Z,20.88
2023-05-10T15:17:02.380Z,21.05
2023-05-10T15:20:04.968Z,21.31
2023-05-10T15:23:06.976Z,21.35
2023-05-10T15:26:08.880Z,21.39
2023-05-10T15:29:10.601Z,21.28
2023-05-10T15:32:12.528Z,21.29
2023-05-10T15:35:15.098Z,21.45
2023-05-10T15:38:17.057Z,21.59
2023-05-10T15:41:18.862Z,21.80
2023-05-10T15:44:20.641Z,21.58
2023-05-10T15:47:22.584Z,21.87
2023-05-10T15:50:24.342Z,21.76
2023-05-10T15:53:26.199Z,21.91
2023-05-10T15:56:27.919Z,21.98
2023-05-10T15:59:29.707Z,22.44
2023-05-10T16:02:31.619Z,22.24
2023-05-10T16:05:33.826Z,22.39
2023-05-10T16:08:36.032Z,22.73
2023-05-10T16:11:37.842Z,23.06
2023-05-10T16:14:39.576Z,22.99
2023-05-10T16:17:41.934Z,23.11
2023-05-10T16:20:48.453Z,23.37
2023-05-10T16:23:50.239Z,23.63
2023-05-10T16:26:52.171Z,23.73
2023-05-10T16:29:53.928Z,23.63
2023-05-10T16:32:56.867Z,24.07
2023-05-10T16:35:59.030Z,24.40
2023-05-10T16:39:01.314Z,24.19
2023-05-10T16:42:06.336Z,24.30
2023-05-10T16:45:09.328Z,24.66
2023-05-10T16:48:11.033Z,24.90
2023-05-10T16:51:13.306Z,25.12
2023-05-10T16:54:15.022Z,25.50
2023-05-10T16:57:16.815Z,25.84
2023-05-10T17:00:20.849Z,25.93
2023-05-10T17:03:22.822Z,26.20
2023-05-10T17:06:24.712Z,26.41
2023-05-10T17:09:26.464Z,26.51
2023-05-10T17:12:28.275Z,26.71
2023-05-10T17:15:30.219Z,26.79
2023-05-10T17:18:32.028Z,26.83
2023-05-10T17:21:33.859Z,27.07
2023-05-10T17:24:35.678Z,27.03
2023-05-10T17:27:37.497Z,27.19
2023-05-10T17:30:39.263Z,27.42
2023-05-10T17:33:41.043Z,27.39
2023-05-10T17:36:43.026Z,27.75
2023-05-10T17:39:44.769Z,27.89
2023-05-10T17:42:46.493Z,28.18
2023-05-10T17:45:49.991Z,28.53
2023-05-10T17:48:51.791Z,29.73
2023-05-10T17:51:53.583Z,30.59
2023-05-10T17:54:55.355Z,31.21
2023-05-10T17:57:59.513Z,31.87
2023-05-10T18:01:01.441Z,32.23
2023-05-10T18:04:03.324Z,33.05
2023-05-10T18:07:05.155Z,33.09
2023-05-10T18:10:07.522Z,33.34
2023-05-10T18:13:09.693Z,33.46
2023-05-10T18:16:13.409Z,34.14
2023-05-10T18:19:15.390Z,34.39
2023-05-10T18:22:17.226Z,35.08
2023-05-10T18:25:19.589Z,35.59
2023-05-10T18:28:21.592Z,36.17
2023-05-10T18:31:24.443Z,36.41
2023-05-10T18:34:26.229Z,36.90
2023-05-10T18:37:28.099Z,38.01
2023-05-10T18:40:30.075Z,37.83
2023-05-10T18:43:34.185Z,37.03
2023-05-10T18:46:36.597Z,36.58
2023-05-10T18:49:38.929Z,36.73
2023-05-10T18:52:40.813Z,36.44
2023-05-10T18:55:42.845Z,36.34
2023-05-10T18:58:45.687Z,36.45
2023-05-10T19:01:49.460Z,36.52
2023-05-10T19:04:52.737Z,36.38
2023-05-10T19:07:55.392Z,36.48
2023-05-10T19:10:57.188Z,36.52
2023-05-10T19:13:59.202Z,36.99
2023-05-10T19:17:00.933Z,36.97
2023-05-10T19:20:04.053Z,36.92
2023-05-10T19:23:10.204Z,36.96
2023-05-10T19:26:12.563Z,37.39
2023-05-10T19:29:14.652Z,37.64
2023-05-10T19:32:16.456Z,37.67
2023-05-10T19:35:18.705Z,37.90
2023-05-10T19:38:22.141Z,38.05
2023-05-10T19:41:23.970Z,38.09
2023-05-10T19:44:25.790Z,38.43
2023-05-10T19:47:27.570Z,38.28
2023-05-10T19:50:29.385Z,38.35
2023-05-10T19:53:32.304Z,38.18
2023-05-10T19:56:34.888Z,38.54
2023-05-10T19:59:36.618Z,38.53
2023-05-10T20:02:38.458Z,38.68
2023-05-10T20:05:40.388Z,38.77
2023-05-10T20:08:42.318Z,39.13
2023-05-10T20:11:44.202Z,39.59
2023-05-10T20:14:47.469Z,39.61
2023-05-10T20:17:54.068Z,39.38
2023-05-10T20:21:00.322Z,39.69
2023-05-10T20:24:02.180Z,39.81
2023-05-10T20:27:04.627Z,39.81
2023-05-10T20:30:07.140Z,39.84
2023-05-10T20:33:09.427Z,40.11
2023-05-10T20:36:11.432Z,40.33
2023-05-10T20:39:13.252Z,40.53
2023-05-10T20:42:15.198Z,40.54
2023-05-10T20:45:16.999Z,40.36
2023-05-10T20:48:19.591Z,40.83
2023-05-10T20:51:21.314Z,41.20
2023-05-10T20:54:25.990Z,41.21
2023-05-10T20:57:27.870Z,41.23
2023-05-10T21:00:29.666Z,41.74
2023-05-10T21:03:31.458Z,41.95
2023-05-10T21:06:33.135Z,42.04
2023-05-10T21:09:35.899Z,42.20
2023-05-10T21:12:37.898Z,42.40
2023-05-10T21:15:39.689Z,42.38
2023-05-10T21:18:41.527Z,42.87
2023-05-10T21:21:43.306Z,42.63
2023-05-10T21:24:45.139Z,42.85
2023-05-10T21:27:47.279Z,43.12
2023-05-10T21:30:49.101Z,43.11
2023-05-10T21:33:50.821Z,43.40
2023-05-10T21:36:53.926Z,43.56
2023-05-10T21:39:55.674Z,43.86
2023-05-10T21:42:57.910Z,44.14
2023-05-10T21:45:59.759Z,43.97
2023-05-10T21:49:01.572Z,44.25
2023-05-10T21:52:03.386Z,44.13
2023-05-10T21:55:05.966Z,44.29
2023-05-10T21:58:07.710Z,44.47
2023-05-10T22:01:09.614Z,44.20
2023-05-10T22:04:11.456Z,44.47
2023-05-10T22:07:13.607Z,44.38
2023-05-10T22:10:15.711Z,44.38
2023-05-10T22:13:17.591Z,44.60
2023-05-10T22:16:19.395Z,44.53
2023-05-10T22:19:21.193Z,44.52
2023-05-10T22:22:22.959Z,45.14
2023-05-10T22:25:24.658Z,45.15
2023-05-10T22:28:26.496Z,45.25
2023-05-10T22:31:28.315Z,45.43
2023-05-10T22:34:30.157Z,45.73
2023-05-10T22:37:31.987Z,45.97
2023-05-10T22:40:33.776Z,46.23
2023-05-10T22:43:35.539Z,46.54
2023-05-10T22:46:37.586Z,46.61
2023-05-10T22:49:39.368Z,46.91
2023-05-10T22:52:41.377Z,47.32
2023-05-10T22:55:43.190Z,47.24
2023-05-10T22:58:45.058Z,47.32
2023-05-10T23:01:48.927Z,47.67
2023-05-10T23:04:50.829Z,47.63
2023-05-10T23:07:53.621Z,47.55
2023-05-10T23:10:55.636Z,47.62
2023-05-10T23:13:57.472Z,47.56
2023-05-10T23:16:59.362Z,47.40
2023-05-10T23:20:01.256Z,47.78
2023-05-10T23:23:03.003Z,47.94
2023-05-10T23:26:05.294Z,48.09
2023-05-10T23:29:07.183Z,48.17
2023-05-10T23:32:09.072Z,48.20
2023-05-10T23:35:11.047Z,48.34
2023-05-10T23:38:12.888Z,48.45
2023-05-10T23:41:14.621Z,48.66
2023-05-10T23:44:16.730Z,48.69
2023-05-10T23:47:18.776Z,49.12
2023-05-10T23:50:20.568Z,49.42
2023-05-10T23:53:22.315Z,49.30
2023-05-10T23:56:24.024Z,49.49
2023-05-10T23:59:26.001Z,49.66
